ADDS METAR Data INFO
IDs: Format: Raw Decoded Include TAF

Data at: 2116 UTC 19 Jul 2018

KCNI 192055Z AUTO 09006KT 10SM CLR 31/18 A2999 RMK AO2
KCNI 192035Z AUTO 07004KT 10SM SCT035 32/18 A2998 RMK AO2
KCNI 192015Z AUTO 07006KT 10SM SCT037 32/18 A2998 RMK AO2
KCNI 191955Z AUTO 10007KT 10SM SCT035 33/17 A2998 RMK AO2
KCNI 191935Z AUTO 10006KT 10SM SCT030 33/18 A2999 RMK AO2
KCNI 191915Z AUTO 07007KT 10SM SCT030 33/18 A3000 RMK AO2
KCNI 191855Z AUTO 10006KT 070V170 10SM SCT032 32/18 A3001 RMK AO2
KCNI 191835Z AUTO 10007KT 040V140 10SM SCT025 SCT032 31/19 A3001 RMK AO2
KCNI 191815Z AUTO 07008KT 040V100 10SM BKN025 BKN032 31/19 A3002 RMK AO2
KCNI 191755Z AUTO 12008KT 10SM SCT023 SCT030 31/18 A3002 RMK AO2
KCNI 191735Z AUTO 11008KT 10SM SCT023 30/19 A3003 RMK AO2
KCNI 191715Z AUTO 09009G15KT 060V120 10SM BKN023 BKN032 30/18 A3004 RMK AO2
KCNI 191655Z AUTO 08007KT 030V090 10SM BKN023 BKN032 30/19 A3004 RMK AO2
KCNI 191635Z AUTO 07007KT 10SM BKN023 BKN029 BKN034 31/20 A3005 RMK AO2
KCNI 191615Z AUTO 07009KT 10SM BKN023 BKN028 31/19 A3005 RMK AO2
KCNI 191555Z AUTO 09006KT 10SM SCT023 SCT055 31/19 A3005 RMK AO2
KCNI 191535Z AUTO 07006KT 10SM SCT055 30/19 A3005 RMK AO2
KCNI 191515Z AUTO 07006KT 10SM CLR 30/18 A3004 RMK AO2
KCNI 191455Z AUTO 07006KT 10SM CLR 29/18 A3004 RMK AO2
KCNI 191435Z AUTO 08008KT 030V100 10SM CLR 29/18 A3004 RMK AO2
KCNI 191415Z AUTO 07005KT 10SM CLR 28/18 A3004 RMK AO2
KCNI 191355Z AUTO 08005KT 10SM SCT030 SCT042 28/18 A3004 RMK AO2
KCNI 191335Z AUTO 08006KT 10SM SCT030 BKN036 OVC042 26/18 A3005 RMK AO2
KCNI 191315Z AUTO 07006KT 10SM SCT028 BKN035 25/18 A3004 RMK AO2
KCNI 191255Z AUTO 07007KT 10SM SCT030 BKN037 25/17 A3004 RMK AO2
KCNI 191235Z AUTO 07006KT 10SM OVC025 25/18 A3003 RMK AO2
KCNI 191215Z AUTO 08005KT 10SM BKN025 BKN032 OVC060 24/18 A3003 RMK AO2
KCNI 191155Z AUTO 07003KT 10SM SCT026 OVC034 24/18 A3003 RMK AO2
KCNI 191135Z AUTO 07004KT 10SM BKN032 OVC043 23/19 A3002 RMK AO2
KCNI 191115Z AUTO 07004KT 10SM OVC028 22/19 A3001 RMK AO2
KCNI 191055Z AUTO 07003KT 10SM BKN028 22/18 A3001 RMK AO2
KCNI 191035Z AUTO 08003KT 10SM SCT026 22/18 A3000 RMK AO2
KCNI 191015Z AUTO 00000KT 10SM CLR 22/18 A3000 RMK AO2
KCNI 190955Z AUTO 00000KT 10SM CLR 22/18 A2999 RMK AO2
KCNI 190935Z AUTO 00000KT 10SM CLR 22/18 A2999 RMK AO2
KCNI 190915Z AUTO 00000KT 10SM CLR 22/20 A2998 RMK AO2
KCNI 190855Z AUTO 00000KT 10SM CLR 21/19 A2998 RMK AO2
KCNI 190835Z AUTO 00000KT 10SM CLR 21/20 A2998 RMK AO2
KCNI 190815Z AUTO 00000KT 10SM CLR 21/20 A2997 RMK AO2
KCNI 190755Z AUTO 00000KT 10SM CLR 21/19 A2997 RMK AO2
KCNI 190735Z AUTO 00000KT 10SM CLR 22/19 A2997 RMK AO2
KCNI 190715Z AUTO 00000KT 10SM CLR 21/19 A2998 RMK AO2
KCNI 190655Z AUTO 00000KT 10SM CLR 22/19 A2998 RMK AO2
KCNI 190635Z AUTO 00000KT 10SM CLR 21/20 A2998 RMK AO2
KCNI 190615Z AUTO 00000KT 10SM CLR 21/20 A2998 RMK AO2
KCNI 190555Z AUTO 00000KT 10SM CLR 22/20 A2999 RMK AO2
KCNI 190535Z AUTO 00000KT 10SM CLR 22/20 A2999 RMK AO2
KCNI 190515Z AUTO 00000KT 10SM CLR 22/20 A3000 RMK AO2
KCNI 190455Z AUTO 00000KT 10SM CLR 22/20 A2999 RMK AO2
KCNI 190435Z AUTO 00000KT 10SM CLR 23/20 A2999 RMK AO2
KCNI 190415Z AUTO 00000KT 10SM CLR 22/20 A3000 RMK AO2
KCNI 190355Z AUTO 00000KT 10SM CLR 24/19 A3000 RMK AO2
KCNI 190335Z AUTO 00000KT 10SM CLR 23/20 A3000 RMK AO2
KCNI 190315Z AUTO 00000KT 10SM CLR 24/19 A3000 RMK AO2
KCNI 190255Z AUTO 00000KT 10SM CLR 25/18 A3001 RMK AO2
KCNI 190235Z AUTO 00000KT 10SM CLR 25/17 A3000 RMK AO2
KCNI 190215Z AUTO 00000KT 10SM CLR 26/16 A3000 RMK AO2
KCNI 190155Z AUTO 00000KT 10SM CLR 26/17 A2999 RMK AO2
KCNI 190135Z AUTO 00000KT 10SM CLR 26/17 A2998 RMK AO2
KCNI 190115Z AUTO 00000KT 10SM CLR 26/18 A2997 RMK AO2
KCNI 190055Z AUTO 00000KT 10SM CLR 27/19 A2997 RMK AO2
KCNI 190035Z AUTO 00000KT 10SM CLR 27/19 A2996 RMK AO2
KCNI 190015Z AUTO 00000KT 10SM CLR 28/18 A2996 RMK AO2
KCNI 182355Z AUTO 30004KT 10SM CLR 28/18 A2995 RMK AO2
KCNI 182335Z AUTO 30005KT 10SM CLR 29/18 A2995 RMK AO2
KCNI 182315Z AUTO 31006KT 10SM CLR 30/19 A2995 RMK AO2
KCNI 182255Z AUTO 30005KT 10SM CLR 31/20 A2995 RMK AO2
KCNI 182235Z AUTO 30006KT 10SM CLR 31/19 A2994 RMK AO2
KCNI 182215Z AUTO 30005KT 10SM CLR 32/18 A2994 RMK AO2
KCNI 182155Z AUTO 30006KT 10SM CLR 32/18 A2994 RMK AO2
KCNI 182135Z AUTO 30007KT 10SM CLR 32/18 A2995 RMK AO2
KCNI 182115Z AUTO 00000KT 10SM CLR 33/17 A2995 RMK AO2
KCNI 182055Z AUTO 31005KT 10SM SCT046 32/18 A2995 RMK AO2
KCNI 182035Z AUTO 30004KT 10SM CLR 33/16 A2996 RMK AO2
KCNI 182015Z AUTO 30005KT 10SM CLR 33/16 A2997 RMK AO2
KCNI 181955Z AUTO 29003KT 10SM CLR 33/15 A2998 RMK AO2
KCNI 181935Z AUTO 31005KT 10SM CLR 33/17 A2998 RMK AO2
KCNI 181915Z AUTO 00000KT 10SM CLR 32/18 A2999 RMK AO2
KCNI 181855Z AUTO 00000KT 10SM SCT060 32/17 A2999 RMK AO2
KCNI 181835Z AUTO 00000KT 10SM SCT037 SCT045 BKN060 33/17 A3000 RMK AO2
KCNI 181815Z AUTO 00000KT 10SM BKN037 BKN045 32/17 A3000 RMK AO2
KCNI 181755Z AUTO 00000KT 10SM SCT035 31/18 A3001 RMK AO2
KCNI 181735Z AUTO 12004KT 10SM CLR 31/18 A3001 RMK AO2
KCNI 181715Z AUTO 15003KT 10SM SCT037 SCT042 31/18 A3002 RMK AO2
KCNI 181655Z AUTO 00000KT 10SM CLR 31/17 A3002 RMK AO2
KCNI 181635Z AUTO 00000KT 10SM CLR 31/17 A3003 RMK AO2
KCNI 181615Z AUTO 00000KT 10SM CLR 31/17 A3004 RMK AO2
KCNI 181555Z AUTO 00000KT 10SM CLR 31/16 A3004 RMK AO2
KCNI 181535Z AUTO 10003KT 10SM CLR 30/17 A3004 RMK AO2
KCNI 181515Z AUTO 00000KT 10SM CLR 29/20 A3004 RMK AO2
KCNI 181455Z AUTO 00000KT 10SM CLR 27/21 A3003 RMK AO2
KCNI 181435Z AUTO 00000KT 10SM CLR 27/21 A3004 RMK AO2
KCNI 181415Z AUTO 00000KT 10SM CLR 26/21 A3004 RMK AO2
KCNI 181355Z AUTO 00000KT 10SM CLR 26/21 A3004 RMK AO2
KCNI 181335Z AUTO 00000KT 10SM CLR 26/21 A3004 RMK AO2
KCNI 181315Z AUTO 00000KT 10SM CLR 25/22 A3004 RMK AO2
KCNI 181255Z AUTO 00000KT 10SM CLR 25/21 A3003 RMK AO2
KCNI 181235Z AUTO 00000KT 10SM CLR 24/22 A3003 RMK AO2
KCNI 181215Z AUTO 00000KT 10SM CLR 23/22 A3003 RMK AO2
KCNI 181155Z AUTO 00000KT 10SM CLR 23/21 A3003 RMK AO2
KCNI 181135Z AUTO 00000KT 10SM CLR 22/21 A3002 RMK AO2
KCNI 181115Z AUTO 00000KT 10SM CLR 22/21 A3001 RMK AO2
KCNI 181055Z AUTO 00000KT 10SM CLR 22/21 A3001 RMK AO2
KCNI 181035Z AUTO 00000KT 7SM CLR 22/21 A2999 RMK AO2
KCNI 181015Z AUTO 00000KT 3SM BR CLR 22/21 A2999 RMK AO2
KCNI 180955Z AUTO 32003KT 5SM BR CLR 22/21 A2998 RMK AO2
KCNI 180935Z AUTO 00000KT 5SM BR CLR 22/21 A2998 RMK AO2